Saint Leonard, New Brunswick

12:38 AM ADT on July 03, 2015 (GMT -0300)
N7GLR aprswxnet | | Change Station
CLOSE
Current Station
Personal Weather Station
Location: Grand Isle [Lille], ME
Elevation: 711 ft
Nearby Weather Stations

Elev 711 ft 47.24 °N, 68.10 °W | Updated 8 minutes ago

Clear
Clear
54.8 °F
Feels Like 54.8 °F
N
1.0
Wind Variable Wind from NE
Gusts 2.0 mph

Today is forecast to be nearly the same temperature as yesterday.

Today
High -- | Low -- °F
--% Chance of Precip.
Yesterday
High -- | Low -- °F
Precip. -- in
5:40 AM 9:30 PM
Full, 99% visible
Pressure 29.80 in
Visibility 10.0 miles
Clouds Clear
Dew Point 49 °F
Humidity 82%
Rainfall 0.00 in
Snow Depth Not available.
UV 0 out of 12
Pollen Not available.
Air Quality Not available.
Flu Activity Not available.
METAR KCAR 030254Z AUTO 23005KT 10SM CLR 13/09 A2978 RMK AO2 SLP089 T01330089 51007

More Conditions Fewer Conditions

Pressure 29.80 in
Visibility 10.0 miles
Clouds Clear
Dew Point 49 °F
Humidity 82%
Rainfall 0.00 in
Snow Depth Not available.
UV 0 out of 12
Pollen Not available.
Air Quality Not available.
Flu Activity Not available.
METAR KCAR 030254Z AUTO 23005KT 10SM CLR 13/09 A2978 RMK AO2 SLP089 T01330089 51007

More Conditions Fewer Conditions

10-Day Weather Forecast

×

Almanac

Astronomy

Jul. 03, 2015 Rise Set
Actual Time
Civil Twilight
Nautical Twilight
Astronomical Twilight
Moon
Length of Visible Light
Length of Day
Tomorrow will be .
, % of the Moon is Illuminated

Today's Extremes

Country Highs Country Lows

Community

WunderPhotos

Upload Photos

1,834,615 photos uploaded!

WunderBlogs® & News

Nearby

Air Quality

  Air Quality AQ Index Pollutant
Not available.

Snow Depth

Station Depth Elevation

Earthquake Activity

City Distance Mag. Time & Date
Minimum magnitude displayed is 2.5.

Coastal Water Temperatures

Place Temperature

Stations

Nearby Weather Stations

Station Location Temp. Windchill Dew Point Humidity Wind Precip. Elev Updated Type